Angier, North Carolina
Current Conditions -  °F | °C
As of 5:55 AM on Wednesday 26 Nov 2014 (Local Time) from KHRJ Reporting Station
Heavy Rain Heavy Rain  
Wind Chill: 51°   Ceiling: 700
Heat Index: 51°   Visibility: 3mi
Dew Point: 51°   Wind: 12mph
Humidity: 100%   Direction: 340°NNW
Pressure: 29.86"   Gusts: 20mph
Location:  35.51°N, 78.74°W
Report Text: KHRJ 261055Z AUTO 34010G17KT 3SM +RA OVC007 11/11 A2986 RMK AO2 P0049 T01060106
Loading
Personal Weather Stations






























Interactive Weather Map New forecast layout! Learn more

10-Day Weather Forecast

Advertisements
Track Severe Weather on mobile